• Join FlightAware (Why Join?)
  • Login
  • US Flag 
01:56PM EDT


 

Airport Tracker/Info


-or-


 

Live Flight TrackerFlight Track Log ✈ SKW5564 ✈ 09-Jul-2013 ✈ KSLC - KDEN

Flight Track Log - Related Links

Times and Time Zones

All times are in EDT time to prevent confusion due to time zone crossing. See the SKW5564 flight status page for this flight to view local times or setup timezone preferences in your user account.

Time Position Orientation Groundspeed Altitude Reporting Facility
EDT Latitude Longitude Course Direction KTS MPH feet Rate Location/Type
03:43PM 40.8153 -111.9792 90° East 178 205 5,100  Level Salt Lake Center
03:44PM 40.8486 -111.9850 352° North 196 226 6,100 1,800 Climbing Salt Lake Center
03:45PM 40.9233 -111.9933 355° North 239 275 8,200 1,740 Climbing Salt Lake Center
03:46PM 41.1072 -111.7572 143° Southeast  Level FlightAware Approximate
03:46PM 40.9983 -112.0019 355° North 271 312 9,900  Level Salt Lake Center
03:47PM 40.9998 -111.6664 149° Southeast  Level FlightAware Approximate
03:47PM 41.0686 -111.9714 18° North 293 337 12,300  Level Salt Lake Center
03:48PM 40.9167 -111.5597 90° East  Level FlightAware Approximate
03:48PM 41.0408 -111.8481 107° East 319 367 14,200  Level Salt Lake Center
03:49PM 40.9961 -111.7606 124° Southeast 323 372 16,400 2,100 Climbing Salt Lake Center
03:50PM 40.9464 -111.6617 124° Southeast 323 372 18,600 1,860 Climbing Salt Lake Center
03:51PM 40.9181 -111.5197 105° East 350 403 20,300 1,560 Climbing Salt Lake Center
03:52PM 40.9086 -111.3844 95° East 372 428 21,900 1,560 Climbing Salt Lake Center
03:53PM 40.8914 -111.2481 99° East 378 435 23,600 1,380 Climbing Salt Lake Center
03:54PM 40.8739 -111.1064 99° East 390 449 24,800 1,140 Climbing Salt Lake Center
03:55PM 40.8553 -110.9561 99° East 412 474 26,000 1,140 Climbing Salt Lake Center
03:57PM 40.8136 -110.6125 99° East 436 502 28,500 1,080 Climbing Salt Lake Center
03:58PM 40.7936 -110.4472 99° East 448 516 29,500 960 Climbing Salt Lake Center
03:59PM 40.7731 -110.2875 100° East 461 531 30,500 960 Climbing Salt Lake Center
04:00PM 40.7494 -110.1025 100° East 464 534 31,600 840 Climbing Salt Lake Center
04:01PM 40.7319 -109.9372 98° East 471 542 32,300 720 Climbing Salt Lake Center
04:02PM 40.7186 -109.7361 95° East 484 557 33,100 720 Climbing Salt Lake Center
04:03PM 40.7078 -109.5597 95° East 499 574 33,800 720 Climbing Salt Lake Center
04:04PM 40.6928 -109.3525 95° East 507 583 34,700 540 Climbing Salt Lake Center
04:05PM 40.6797 -109.1800 96° East 507 583 35,000 120 Climbing Salt Lake Center
04:07PM 40.6631 -108.9742 96° East 509 586 35,000  Level Salt Lake Center
04:08PM 40.6492 -108.8025 96° East 499 574 35,000  Level Salt Lake Center
04:09PM 40.6333 -108.6019 96° East 495 570 35,000  Level Salt Lake Center
04:10PM 40.6194 -108.4317 96° East 494 568 35,000  Level Salt Lake Center
04:11PM 40.6022 -108.2319 96° East 495 570 35,000  Level Salt Lake Center
04:12PM 40.5881 -108.0611 96° East 492 566 35,000  Level Salt Lake Center
04:13PM 40.5703 -107.8614 97° East 492 566 35,000  Level Salt Lake Center
04:14PM 40.5544 -107.6889 97° East 496 571 35,000  Level Salt Lake Center
04:15PM 40.5308 -107.4147 96° East 494 568 35,000  Level Denver Center
04:16PM 40.5169 -107.2717 97° East 494 568 35,000  Level Denver Center
04:17PM 40.5075 -107.0650 93° East 498 573 35,000  Level Denver Center
04:18PM 40.4975 -106.8822 94° East 499 574 35,000  Level Denver Center
04:19PM 40.4881 -106.7017 94° East 495 570 35,000  Level Denver Center
04:20PM 40.4753 -106.4933 95° East 495 570 35,000 -540 Level Denver Center
04:21PM 40.4661 -106.3253 94° East 484 557 33,900 -2,580 Descending Denver Center
04:22PM 40.4536 -106.1275 95° East 495 570 29,700 -3,840 Descending Denver Center
04:23PM 40.4375 -105.9433 96° East 503 579 26,000 -3,540 Descending Denver Center
04:24PM 40.4103 -105.7706 102° East 487 560 22,400 -3,240 Descending Denver Center
04:26PM 40.3831 -105.6117 103° East 459 528 19,400 -2,580 Descending Denver Center
04:27PM 40.3611 -105.4750 102° East 402 463 17,100 -1,800 Descending Denver Center
04:28PM 40.3094 -105.3644 121° Southeast 331 381 15,800 -1,320 Descending Denver Center
04:29PM 40.2464 -105.2631 129° Southeast 336 387 14,400 -1,020 Descending Denver Center
04:30PM 40.1875 -105.1731 131° Southeast 329 379 13,700 -600 Descending Denver Center
04:31PM 40.1181 -105.1283 154° Southeast 275 316 13,200 -360 Descending Denver Center
04:32PM 40.0469 -105.1200 175° South 259 298 13,000 -1,080 Descending Denver Center
04:33PM 39.9781 -105.1169 178° South 236 272 11,000 -1,560 Descending Denver Center
04:34PM 39.9136 -105.1164 180° South 233 268 9,800 -780 Descending Denver Center
04:35PM 39.8508 -105.1036 171° South 225 259 9,400 -360 Descending Denver Center
04:36PM 39.8397 -105.0297 101° East 209 241 9,100 -240 Descending Denver Center
04:37PM 39.8425 -104.9592 87° East 199 229 9,000 -120 Descending Denver Center